sensor_id;sensor_type;location;lat;lon;timestamp;pressure;altitude;pressure_sealevel;temperature;humidity
18697;BME280;22617;43.690;27.956;2023-04-01T00:04:14;98073.53;;;8.12;81.55
18697;BME280;22617;43.690;27.956;2023-04-01T00:09:18;98068.56;;;7.91;81.88
18697;BME280;22617;43.690;27.956;2023-04-01T00:14:24;98068.72;;;7.69;82.20
18697;BME280;22617;43.690;27.956;2023-04-01T00:19:28;98060.03;;;7.75;82.11
18697;BME280;22617;43.690;27.956;2023-04-01T00:24:32;98060.97;;;7.66;82.19
18697;BME280;22617;43.690;27.956;2023-04-01T00:29:36;98058.38;;;7.63;81.86
18697;BME280;22617;43.690;27.956;2023-04-01T00:34:40;98053.28;;;7.54;82.38
18697;BME280;22617;43.690;27.956;2023-04-01T00:39:43;98047.19;;;7.58;82.64
18697;BME280;22617;43.690;27.956;2023-04-01T00:44:50;98040.31;;;7.54;82.51
18697;BME280;22617;43.690;27.956;2023-04-01T00:49:55;98051.59;;;7.49;82.48
18697;BME280;22617;43.690;27.956;2023-04-01T00:54:59;98050.72;;;7.50;82.50
18697;BME280;22617;43.690;27.956;2023-04-01T01:00:09;98050.72;;;7.50;83.04
18697;BME280;22617;43.690;27.956;2023-04-01T01:05:16;98040.34;;;7.51;82.39
18697;BME280;22617;43.690;27.956;2023-04-01T01:10:24;98036.94;;;7.46;82.99
18697;BME280;22617;43.690;27.956;2023-04-01T01:15:33;98036.03;;;7.49;82.69
18697;BME280;22617;43.690;27.956;2023-04-01T01:21:14;98030.00;;;7.47;82.97
18697;BME280;22617;43.690;27.956;2023-04-01T01:26:42;98015.34;;;7.41;82.58
18697;BME280;22617;43.690;27.956;2023-04-01T01:31:57;98003.34;;;7.31;82.59
18697;BME280;22617;43.690;27.956;2023-04-01T01:37:11;98002.50;;;7.29;82.99
18697;BME280;22617;43.690;27.956;2023-04-01T01:42:18;98005.97;;;7.25;82.92
18697;BME280;22617;43.690;27.956;2023-04-01T01:47:24;98006.88;;;7.22;82.80
18697;BME280;22617;43.690;27.956;2023-04-01T01:52:30;98004.34;;;7.12;82.64
18697;BME280;22617;43.690;27.956;2023-04-01T01:57:36;98000.09;;;6.98;83.06
18697;BME280;22617;43.690;27.956;2023-04-01T02:02:48;98004.47;;;6.89;83.25
18697;BME280;22617;43.690;27.956;2023-04-01T02:07:57;98000.19;;;6.85;83.43
18697;BME280;22617;43.690;27.956;2023-04-01T02:13:06;97987.31;;;6.68;83.25
18697;BME280;22617;43.690;27.956;2023-04-01T02:18:12;97972.66;;;6.63;83.61
18697;BME280;22617;43.690;27.956;2023-04-01T02:23:18;97966.72;;;6.47;83.65
18697;BME280;22617;43.690;27.956;2023-04-01T02:28:22;97965.03;;;6.40;83.15
18697;BME280;22617;43.690;27.956;2023-04-01T02:33:28;97960.72;;;6.34;84.32
18697;BME280;22617;43.690;27.956;2023-04-01T02:38:35;97969.34;;;6.41;84.65
18697;BME280;22617;43.690;27.956;2023-04-01T02:43:39;97962.31;;;6.66;85.55
18697;BME280;22617;43.690;27.956;2023-04-01T02:48:43;97950.97;;;6.86;84.90
18697;BME280;22617;43.690;27.956;2023-04-01T02:53:48;97948.28;;;7.01;85.39
18697;BME280;22617;43.690;27.956;2023-04-01T02:58:52;97937.91;;;7.01;84.61
18697;BME280;22617;43.690;27.956;2023-04-01T03:03:55;97931.00;;;7.00;84.69
18697;BME280;22617;43.690;27.956;2023-04-01T03:09:01;97931.91;;;6.99;84.70
18697;BME280;22617;43.690;27.956;2023-04-01T03:14:05;97926.78;;;6.89;84.51
18697;BME280;22617;43.690;27.956;2023-04-01T03:19:09;97926.00;;;6.79;84.56
18697;BME280;22617;43.690;27.956;2023-04-01T03:24:13;97920.00;;;6.70;85.48
18697;BME280;22617;43.690;27.956;2023-04-01T03:29:17;97914.81;;;6.73;85.90
18697;BME280;22617;43.690;27.956;2023-04-01T03:34:21;97912.22;;;6.76;86.39
18697;BME280;22617;43.690;27.956;2023-04-01T03:39:26;97905.75;;;7.25;85.85
18697;BME280;22617;43.690;27.956;2023-04-01T03:44:31;97903.13;;;7.33;84.68
18697;BME280;22617;43.690;27.956;2023-04-01T03:49:35;97895.31;;;7.36;84.18
18697;BME280;22617;43.690;27.956;2023-04-01T03:54:40;97892.78;;;7.30;84.64
18697;BME280;22617;43.690;27.956;2023-04-01T03:59:44;97896.13;;;7.39;84.78
18697;BME280;22617;43.690;27.956;2023-04-01T04:04:48;97892.72;;;7.36;84.76
18697;BME280;22617;43.690;27.956;2023-04-01T04:09:52;97893.41;;;7.55;84.68
18697;BME280;22617;43.690;27.956;2023-04-01T04:14:56;97907.22;;;7.57;85.02
18697;BME280;22617;43.690;27.956;2023-04-01T04:20:00;97898.31;;;7.80;85.30
18697;BME280;22617;43.690;27.956;2023-04-01T04:25:06;97900.75;;;7.96;84.71
18697;BME280;22617;43.690;27.956;2023-04-01T04:30:12;97891.81;;;8.18;84.03
18697;BME280;22617;43.690;27.956;2023-04-01T04:35:15;97876.03;;;8.36;84.10
18697;BME280;22617;43.690;27.956;2023-04-01T04:40:21;97867.13;;;8.54;83.81
18697;BME280;22617;43.690;27.956;2023-04-01T04:45:24;97866.91;;;8.70;83.97
18697;BME280;22617;43.690;27.956;2023-04-01T04:50:30;97860.31;;;9.03;84.05
18697;BME280;22617;43.690;27.956;2023-04-01T04:55:36;97866.91;;;9.24;82.92
18697;BME280;22617;43.690;27.956;2023-04-01T05:01:06;97856.00;;;9.53;82.80
18697;BME280;22617;43.690;27.956;2023-04-01T05:06:12;97848.81;;;9.66;82.27
18697;BME280;22617;43.690;27.956;2023-04-01T05:11:18;97848.34;;;9.88;81.58
18697;BME280;22617;43.690;27.956;2023-04-01T05:16:24;97844.44;;;10.11;80.19
18697;BME280;22617;43.690;27.956;2023-04-01T05:21:27;97846.09;;;10.16;80.73
18697;BME280;22617;43.690;27.956;2023-04-01T05:26:33;97849.31;;;10.27;80.42
18697;BME280;22617;43.690;27.956;2023-04-01T05:31:37;97839.63;;;10.34;80.45
18697;BME280;22617;43.690;27.956;2023-04-01T05:36:41;97828.69;;;10.57;80.26
18697;BME280;22617;43.690;27.956;2023-04-01T05:41:46;97821.88;;;10.88;79.66
18697;BME280;22617;43.690;27.956;2023-04-01T05:46:49;97823.19;;;11.06;79.41
18697;BME280;22617;43.690;27.956;2023-04-01T05:51:58;97804.31;;;11.30;79.07
18697;BME280;22617;43.690;27.956;2023-04-01T05:57:04;97799.59;;;11.43;78.83
18697;BME280;22617;43.690;27.956;2023-04-01T06:02:08;97799.31;;;11.53;79.09
18697;BME280;22617;43.690;27.956;2023-04-01T06:07:14;97799.66;;;11.72;79.49
18697;BME280;22617;43.690;27.956;2023-04-01T06:12:40;97787.81;;;11.93;78.49
18697;BME280;22617;43.690;27.956;2023-04-01T06:18:02;97790.75;;;12.10;78.30
18697;BME280;22617;43.690;27.956;2023-04-01T06:23:23;97793.25;;;12.14;78.63
18697;BME280;22617;43.690;27.956;2023-04-01T06:29:03;97791.34;;;12.19;78.19
18697;BME280;22617;43.690;27.956;2023-04-01T06:34:27;97790.56;;;12.17;77.79
18697;BME280;22617;43.690;27.956;2023-04-01T06:39:56;97792.38;;;12.14;77.87
18697;BME280;22617;43.690;27.956;2023-04-01T06:45:22;97787.47;;;12.33;78.25
18697;BME280;22617;43.690;27.956;2023-04-01T06:51:02;97778.66;;;12.37;78.20
18697;BME280;22617;43.690;27.956;2023-04-01T06:56:32;97777.47;;;12.47;78.27
18697;BME280;22617;43.690;27.956;2023-04-01T07:01:49;97760.78;;;12.51;78.13
18697;BME280;22617;43.690;27.956;2023-04-01T07:06:56;97763.19;;;12.57;78.07
18697;BME280;22617;43.690;27.956;2023-04-01T07:12:05;97758.06;;;12.54;78.07
18697;BME280;22617;43.690;27.956;2023-04-01T07:17:39;97747.66;;;12.52;77.54
18697;BME280;22617;43.690;27.956;2023-04-01T07:22:47;97744.09;;;12.55;77.24
18697;BME280;22617;43.690;27.956;2023-04-01T07:28:04;97740.50;;;12.57;77.04
18697;BME280;22617;43.690;27.956;2023-04-01T07:33:16;97727.84;;;12.72;76.57
18697;BME280;22617;43.690;27.956;2023-04-01T07:38:31;97732.63;;;12.59;78.31
18697;BME280;22617;43.690;27.956;2023-04-01T07:43:44;97733.59;;;12.56;78.08
18697;BME280;22617;43.690;27.956;2023-04-01T07:49:18;97729.16;;;12.58;77.80
18697;BME280;22617;43.690;27.956;2023-04-01T07:54:29;97734.50;;;12.55;78.03
18697;BME280;22617;43.690;27.956;2023-04-01T07:59:41;97744.09;;;12.55;77.90
18697;BME280;22617;43.690;27.956;2023-04-01T08:05:06;97724.44;;;12.70;77.48
18697;BME280;22617;43.690;27.956;2023-04-01T08:10:18;97732.75;;;12.81;77.09
18697;BME280;22617;43.690;27.956;2023-04-01T08:15:50;97722.41;;;13.04;77.74
18697;BME280;22617;43.690;27.956;2023-04-01T08:21:17;97720.56;;;13.32;77.29
18697;BME280;22617;43.690;27.956;2023-04-01T08:26:30;97719.78;;;13.53;76.41
18697;BME280;22617;43.690;27.956;2023-04-01T08:31:39;97716.66;;;13.67;76.43
18697;BME280;22617;43.690;27.956;2023-04-01T08:36:51;97707.09;;;13.89;74.06
18697;BME280;22617;43.690;27.956;2023-04-01T08:47:55;97700.91;;;14.35;72.63
18697;BME280;22617;43.690;27.956;2023-04-01T08:53:17;97701.22;;;14.92;73.14
18697;BME280;22617;43.690;27.956;2023-04-01T09:04:22;97692.63;;;16.06;68.50
18697;BME280;22617;43.690;27.956;2023-04-01T09:10:02;97690.06;;;15.47;68.42
18697;BME280;22617;43.690;27.956;2023-04-01T09:21:02;97696.72;;;14.95;70.37
18697;BME280;22617;43.690;27.956;2023-04-01T09:26:39;97698.44;;;14.96;71.01
18697;BME280;22617;43.690;27.956;2023-04-01T09:32:01;97701.88;;;14.97;69.95
18697;BME280;22617;43.690;27.956;2023-04-01T09:37:51;97690.06;;;15.07;70.33
18697;BME280;22617;43.690;27.956;2023-04-01T09:43:25;97697.50;;;15.17;70.36
18697;BME280;22617;43.690;27.956;2023-04-01T09:48:44;97685.44;;;15.13;68.78
18697;BME280;22617;43.690;27.956;2023-04-01T09:54:01;97677.66;;;15.31;69.33
18697;BME280;22617;43.690;27.956;2023-04-01T09:59:38;97671.50;;;15.70;68.19
18697;BME280;22617;43.690;27.956;2023-04-01T10:11:21;97648.63;;;16.10;69.37
18697;BME280;22617;43.690;27.956;2023-04-01T10:16:57;97636.88;;;15.81;66.17
18697;BME280;22617;43.690;27.956;2023-04-01T10:28:02;97630.59;;;15.84;69.33
18697;BME280;22617;43.690;27.956;2023-04-01T10:34:01;97623.91;;;16.31;67.69
18697;BME280;22617;43.690;27.956;2023-04-01T10:45:47;97611.97;;;16.07;67.60
18697;BME280;22617;43.690;27.956;2023-04-01T10:51:16;97610.00;;;16.29;68.40
18697;BME280;22617;43.690;27.956;2023-04-01T10:56:53;97589.34;;;16.22;67.25
18697;BME280;22617;43.690;27.956;2023-04-01T11:15:17;97540.91;;;17.43;64.42
18697;BME280;22617;43.690;27.956;2023-04-01T11:26:32;97513.47;;;17.78;61.13
18697;BME280;22617;43.690;27.956;2023-04-01T11:32:10;97504.88;;;17.28;62.74
18697;BME280;22617;43.690;27.956;2023-04-01T11:37:32;97523.81;;;17.34;61.53
18697;BME280;22617;43.690;27.956;2023-04-01T11:43:01;97518.56;;;16.86;64.58
18697;BME280;22617;43.690;27.956;2023-04-01T11:49:02;97514.84;;;16.55;65.67
18697;BME280;22617;43.690;27.956;2023-04-01T11:54:28;97523.88;;;16.69;64.86
18697;BME280;22617;43.690;27.956;2023-04-01T11:59:49;97493.22;;;16.68;66.51
18697;BME280;22617;43.690;27.956;2023-04-01T12:05:14;97500.25;;;16.67;66.59
18697;BME280;22617;43.690;27.956;2023-04-01T12:10:27;97506.53;;;16.65;67.04
18697;BME280;22617;43.690;27.956;2023-04-01T12:15:48;97505.34;;;17.03;66.96
18697;BME280;22617;43.690;27.956;2023-04-01T12:21:02;97495.03;;;17.63;65.35
18697;BME280;22617;43.690;27.956;2023-04-01T12:26:30;97492.03;;;19.57;61.37
18697;BME280;22617;43.690;27.956;2023-04-01T12:31:48;97496.19;;;20.28;58.88
18697;BME280;22617;43.690;27.956;2023-04-01T12:37:04;97493.50;;;20.15;57.15
18697;BME280;22617;43.690;27.956;2023-04-01T12:42:19;97478.78;;;20.11;55.93
18697;BME280;22617;43.690;27.956;2023-04-01T12:53:16;97485.38;;;20.18;54.28
18697;BME280;22617;43.690;27.956;2023-04-01T12:58:53;97492.84;;;19.03;56.00
18697;BME280;22617;43.690;27.956;2023-04-01T13:09:45;97489.00;;;18.36;58.26
18697;BME280;22617;43.690;27.956;2023-04-01T13:15:21;97487.31;;;18.05;58.87
18697;BME280;22617;43.690;27.956;2023-04-01T13:20:39;97494.53;;;17.72;59.31
18697;BME280;22617;43.690;27.956;2023-04-01T13:25:51;97484.69;;;17.60;58.62
18697;BME280;22617;43.690;27.956;2023-04-01T13:31:31;97476.00;;;17.26;59.79
18697;BME280;22617;43.690;27.956;2023-04-01T13:36:43;97468.84;;;17.28;60.24
18697;BME280;22617;43.690;27.956;2023-04-01T13:42:00;97453.91;;;17.29;59.99
18697;BME280;22617;43.690;27.956;2023-04-01T13:47:23;97436.72;;;17.22;60.26
18697;BME280;22617;43.690;27.956;2023-04-01T13:52:52;97432.22;;;17.08;61.88
18697;BME280;22617;43.690;27.956;2023-04-01T13:58:30;97429.63;;;16.92;63.39
18697;BME280;22617;43.690;27.956;2023-04-01T14:03:49;97431.88;;;16.98;64.13
18697;BME280;22617;43.690;27.956;2023-04-01T14:09:28;97428.84;;;17.06;64.88
18697;BME280;22617;43.690;27.956;2023-04-01T14:14:46;97416.88;;;17.16;63.31
18697;BME280;22617;43.690;27.956;2023-04-01T14:20:05;97418.47;;;17.34;61.58
18697;BME280;22617;43.690;27.956;2023-04-01T14:25:45;97425.06;;;17.57;60.41
18697;BME280;22617;43.690;27.956;2023-04-01T14:31:11;97428.31;;;17.47;61.98
18697;BME280;22617;43.690;27.956;2023-04-01T14:36:32;97446.00;;;17.13;67.36
18697;BME280;22617;43.690;27.956;2023-04-01T14:41:46;97435.03;;;17.36;67.88
18697;BME280;22617;43.690;27.956;2023-04-01T14:52:50;97435.91;;;17.21;69.16
18697;BME280;22617;43.690;27.956;2023-04-01T14:58:04;97425.53;;;17.18;69.30
18697;BME280;22617;43.690;27.956;2023-04-01T15:03:16;97405.81;;;16.94;69.69
18697;BME280;22617;43.690;27.956;2023-04-01T15:08:25;97415.91;;;16.70;70.30
18697;BME280;22617;43.690;27.956;2023-04-01T15:13:50;97409.66;;;16.55;70.71
18697;BME280;22617;43.690;27.956;2023-04-01T15:19:05;97402.94;;;16.67;70.44
18697;BME280;22617;43.690;27.956;2023-04-01T15:24:21;97379.50;;;16.94;69.33
18697;BME280;22617;43.690;27.956;2023-04-01T15:29:43;97378.56;;;16.95;69.59
18697;BME280;22617;43.690;27.956;2023-04-01T15:34:55;97355.06;;;16.61;71.04
18697;BME280;22617;43.690;27.956;2023-04-01T15:40:11;97353.59;;;16.22;72.49
18697;BME280;22617;43.690;27.956;2023-04-01T15:45:30;97349.63;;;15.98;73.67
18697;BME280;22617;43.690;27.956;2023-04-01T15:50:51;97339.09;;;15.82;74.43
18697;BME280;22617;43.690;27.956;2023-04-01T15:56:11;97356.94;;;15.76;74.91
18697;BME280;22617;43.690;27.956;2023-04-01T16:01:27;97361.72;;;15.67;74.90
18697;BME280;22617;43.690;27.956;2023-04-01T16:06:47;97363.44;;;15.50;76.21
18697;BME280;22617;43.690;27.956;2023-04-01T16:12:00;97360.75;;;15.34;76.67
18697;BME280;22617;43.690;27.956;2023-04-01T16:17:36;97346.56;;;15.02;77.70
18697;BME280;22617;43.690;27.956;2023-04-01T16:22:53;97348.19;;;15.05;77.94
18697;BME280;22617;43.690;27.956;2023-04-01T16:28:12;97353.06;;;14.76;77.56
18697;BME280;22617;43.690;27.956;2023-04-01T16:33:22;97340.59;;;14.63;76.93
18697;BME280;22617;43.690;27.956;2023-04-01T16:38:35;97337.84;;;14.47;76.91
18697;BME280;22617;43.690;27.956;2023-04-01T16:43:44;97336.41;;;14.40;76.53
18697;BME280;22617;43.690;27.956;2023-04-01T16:49:04;97340.97;;;14.35;76.32
18697;BME280;22617;43.690;27.956;2023-04-01T16:54:28;97349.16;;;14.29;75.92
18697;BME280;22617;43.690;27.956;2023-04-01T16:59:37;97335.94;;;14.12;76.37
18697;BME280;22617;43.690;27.956;2023-04-01T17:04:44;97344.41;;;13.98;76.76
18697;BME280;22617;43.690;27.956;2023-04-01T17:09:59;97345.09;;;13.83;77.34
18697;BME280;22617;43.690;27.956;2023-04-01T17:15:14;97343.31;;;13.63;77.88
18697;BME280;22617;43.690;27.956;2023-04-01T17:20:32;97347.69;;;13.63;77.69
18697;BME280;22617;43.690;27.956;2023-04-01T17:25:51;97349.94;;;13.51;77.88
18697;BME280;22617;43.690;27.956;2023-04-01T17:31:05;97345.03;;;13.64;77.95
18697;BME280;22617;43.690;27.956;2023-04-01T17:36:18;97356.56;;;13.60;77.99
18697;BME280;22617;43.690;27.956;2023-04-01T17:41:32;97369.56;;;13.41;78.53
18697;BME280;22617;43.690;27.956;2023-04-01T17:46:57;97358.88;;;13.26;81.38
18697;BME280;22617;43.690;27.956;2023-04-01T17:52:09;97345.16;;;13.19;82.26
18697;BME280;22617;43.690;27.956;2023-04-01T17:57:39;97338.47;;;13.34;82.80
18697;BME280;22617;43.690;27.956;2023-04-01T18:02:56;97335.38;;;13.24;81.69
18697;BME280;22617;43.690;27.956;2023-04-01T18:08:15;97355.59;;;13.21;82.30
18697;BME280;22617;43.690;27.956;2023-04-01T18:13:45;97357.63;;;12.69;87.33
18697;BME280;22617;43.690;27.956;2023-04-01T18:19:02;97368.28;;;12.64;89.24
18697;BME280;22617;43.690;27.956;2023-04-01T18:24:14;97428.97;;;12.71;90.35
18697;BME280;22617;43.690;27.956;2023-04-01T18:29:27;97419.91;;;12.35;92.69
18697;BME280;22617;43.690;27.956;2023-04-01T18:34:48;97404.25;;;12.35;93.51
18697;BME280;22617;43.690;27.956;2023-04-01T18:39:57;97385.41;;;12.02;93.35
18697;BME280;22617;43.690;27.956;2023-04-01T18:45:14;97376.88;;;11.72;94.86
18697;BME280;22617;43.690;27.956;2023-04-01T18:50:27;97367.16;;;11.77;96.00
18697;BME280;22617;43.690;27.956;2023-04-01T18:55:38;97355.91;;;11.75;95.90
18697;BME280;22617;43.690;27.956;2023-04-01T19:00:49;97344.53;;;11.77;95.99
18697;BME280;22617;43.690;27.956;2023-04-01T19:06:00;97349.53;;;11.84;95.91
18697;BME280;22617;43.690;27.956;2023-04-01T19:11:17;97350.69;;;11.75;95.92
18697;BME280;22617;43.690;27.956;2023-04-01T19:16:33;97352.66;;;11.68;96.64
18697;BME280;22617;43.690;27.956;2023-04-01T19:21:44;97351.13;;;11.61;96.83
18697;BME280;22617;43.690;27.956;2023-04-01T19:26:58;97361.34;;;11.43;96.46
18697;BME280;22617;43.690;27.956;2023-04-01T19:32:14;97371.41;;;11.28;96.99
18697;BME280;22617;43.690;27.956;2023-04-01T19:37:27;97395.56;;;11.07;98.41
18697;BME280;22617;43.690;27.956;2023-04-01T19:42:38;97425.56;;;11.20;99.00
18697;BME280;22617;43.690;27.956;2023-04-01T19:47:56;97427.00;;;11.03;98.30
18697;BME280;22617;43.690;27.956;2023-04-01T19:53:11;97426.91;;;10.78;98.41
18697;BME280;22617;43.690;27.956;2023-04-01T19:58:21;97446.59;;;10.59;99.31
18697;BME280;22617;43.690;27.956;2023-04-01T20:03:35;97453.69;;;10.54;99.78
18697;BME280;22617;43.690;27.956;2023-04-01T20:08:45;97452.84;;;10.52;100.00
18697;BME280;22617;43.690;27.956;2023-04-01T20:14:03;97447.75;;;10.48;100.00
18697;BME280;22617;43.690;27.956;2023-04-01T20:19:09;97454.69;;;10.48;100.00
18697;BME280;22617;43.690;27.956;2023-04-01T20:24:20;97476.25;;;10.53;100.00
18697;BME280;22617;43.690;27.956;2023-04-01T20:29:47;97473.50;;;10.59;100.00
18697;BME280;22617;43.690;27.956;2023-04-01T20:35:11;97462.00;;;10.65;100.00
18697;BME280;22617;43.690;27.956;2023-04-01T20:40:32;97475.03;;;10.65;100.00
18697;BME280;22617;43.690;27.956;2023-04-01T20:45:43;97481.25;;;10.61;100.00
18697;BME280;22617;43.690;27.956;2023-04-01T20:50:51;97472.44;;;10.65;100.00
18697;BME280;22617;43.690;27.956;2023-04-01T20:56:17;97490.16;;;10.52;100.00
18697;BME280;22617;43.690;27.956;2023-04-01T21:01:35;97480.78;;;10.46;100.00
18697;BME280;22617;43.690;27.956;2023-04-01T21:07:08;97461.53;;;10.52;100.00
18697;BME280;22617;43.690;27.956;2023-04-01T21:12:24;97476.25;;;10.53;100.00
18697;BME280;22617;43.690;27.956;2023-04-01T21:17:42;97465.81;;;10.55;98.98
18697;BME280;22617;43.690;27.956;2023-04-01T21:22:59;97466.63;;;10.55;98.71
18697;BME280;22617;43.690;27.956;2023-04-01T21:28:20;97469.34;;;10.52;97.69
18697;BME280;22617;43.690;27.956;2023-04-01T21:33:46;97471.31;;;10.44;97.52
18697;BME280;22617;43.690;27.956;2023-04-01T21:39:01;97483.47;;;10.43;97.46
18697;BME280;22617;43.690;27.956;2023-04-01T21:44:42;97481.75;;;10.42;97.43
18697;BME280;22617;43.690;27.956;2023-04-01T21:50:08;97484.47;;;10.39;97.83
18697;BME280;22617;43.690;27.956;2023-04-01T21:55:33;97488.19;;;10.31;98.00
18697;BME280;22617;43.690;27.956;2023-04-01T22:00:50;97479.50;;;10.30;99.16
18697;BME280;22617;43.690;27.956;2023-04-01T22:06:06;97483.09;;;10.26;99.53
18697;BME280;22617;43.690;27.956;2023-04-01T22:11:20;97500.63;;;10.20;99.53
18697;BME280;22617;43.690;27.956;2023-04-01T22:16:34;97530.19;;;10.17;100.00
18697;BME280;22617;43.690;27.956;2023-04-01T22:21:45;97530.25;;;10.16;100.00
18697;BME280;22617;43.690;27.956;2023-04-01T22:27:00;97516.16;;;10.23;100.00
18697;BME280;22617;43.690;27.956;2023-04-01T22:32:11;97520.50;;;10.22;100.00
18697;BME280;22617;43.690;27.956;2023-04-01T22:37:22;97528.78;;;10.36;100.00
18697;BME280;22617;43.690;27.956;2023-04-01T22:42:41;97531.38;;;10.38;100.00
18697;BME280;22617;43.690;27.956;2023-04-01T22:47:51;97536.66;;;10.35;99.94
18697;BME280;22617;43.690;27.956;2023-04-01T22:53:12;97532.22;;;10.38;99.77
18697;BME280;22617;43.690;27.956;2023-04-01T22:58:24;97525.28;;;10.39;100.00
18697;BME280;22617;43.690;27.956;2023-04-01T23:03:32;97535.66;;;10.40;100.00
18697;BME280;22617;43.690;27.956;2023-04-01T23:09:00;97545.84;;;10.48;99.64
18697;BME280;22617;43.690;27.956;2023-04-01T23:14:30;97539.81;;;10.46;97.73
18697;BME280;22617;43.690;27.956;2023-04-01T23:19:41;97548.97;;;10.30;93.62
18697;BME280;22617;43.690;27.956;2023-04-01T23:24:52;97555.28;;;10.21;87.88
18697;BME280;22617;43.690;27.956;2023-04-01T23:29:56;97544.88;;;10.20;86.84
18697;BME280;22617;43.690;27.956;2023-04-01T23:35:01;97541.63;;;10.10;85.45
18697;BME280;22617;43.690;27.956;2023-04-01T23:40:12;97548.66;;;10.06;85.31
18697;BME280;22617;43.690;27.956;2023-04-01T23:45:17;97555.75;;;10.00;84.90
18697;BME280;22617;43.690;27.956;2023-04-01T23:50:25;97545.56;;;9.92;86.07
18697;BME280;22617;43.690;27.956;2023-04-01T23:55:32;97541.53;;;9.79;85.92
